sensor_id;sensor_type;location;lat;lon;timestamp;pressure;altitude;pressure_sealevel;temperature;humidity
34081;BME280;20358;50.272;19.026;2023-08-30T00:00:43;97198.69;;;20.74;74.54
34081;BME280;20358;50.272;19.026;2023-08-30T00:03:50;97205.50;;;20.76;74.58
34081;BME280;20358;50.272;19.026;2023-08-30T00:06:56;97194.88;;;20.76;74.60
34081;BME280;20358;50.272;19.026;2023-08-30T00:10:06;97182.94;;;20.72;74.74
34081;BME280;20358;50.272;19.026;2023-08-30T00:13:15;97168.47;;;20.67;74.90
34081;BME280;20358;50.272;19.026;2023-08-30T00:16:25;97159.69;;;20.58;74.96
34081;BME280;20358;50.272;19.026;2023-08-30T00:19:33;97161.50;;;20.58;75.20
34081;BME280;20358;50.272;19.026;2023-08-30T00:22:39;97164.34;;;20.56;75.10
34081;BME280;20358;50.272;19.026;2023-08-30T00:25:46;97168.63;;;20.57;74.94
34081;BME280;20358;50.272;19.026;2023-08-30T00:28:52;97161.84;;;20.63;74.84
34081;BME280;20358;50.272;19.026;2023-08-30T00:32:01;97163.50;;;20.64;74.84
34081;BME280;20358;50.272;19.026;2023-08-30T00:35:08;97161.16;;;20.69;74.30
34081;BME280;20358;50.272;19.026;2023-08-30T00:38:14;97162.00;;;20.69;74.34
34081;BME280;20358;50.272;19.026;2023-08-30T00:41:21;97158.53;;;20.69;74.25
34081;BME280;20358;50.272;19.026;2023-08-30T00:44:27;97153.38;;;20.67;73.94
34081;BME280;20358;50.272;19.026;2023-08-30T00:47:36;97149.25;;;20.65;74.30
34081;BME280;20358;50.272;19.026;2023-08-30T00:50:43;97151.06;;;20.64;74.16
34081;BME280;20358;50.272;19.026;2023-08-30T00:53:50;97153.53;;;20.66;73.72
34081;BME280;20358;50.272;19.026;2023-08-30T00:56:57;97147.25;;;20.67;74.26
34081;BME280;20358;50.272;19.026;2023-08-30T01:00:08;97151.53;;;20.68;73.60
34081;BME280;20358;50.272;19.026;2023-08-30T01:03:21;97140.59;;;20.63;73.01
34081;BME280;20358;50.272;19.026;2023-08-30T01:06:30;97147.25;;;20.59;72.98
34081;BME280;20358;50.272;19.026;2023-08-30T01:09:38;97151.53;;;20.60;72.80
34081;BME280;20358;50.272;19.026;2023-08-30T01:12:48;97141.59;;;20.54;72.83
34081;BME280;20358;50.272;19.026;2023-08-30T01:16:00;97151.38;;;20.45;72.98
34081;BME280;20358;50.272;19.026;2023-08-30T01:19:26;97146.91;;;20.46;73.50
34081;BME280;20358;50.272;19.026;2023-08-30T01:22:53;97139.94;;;20.45;73.49
34081;BME280;20358;50.272;19.026;2023-08-30T01:26:13;97140.25;;;20.50;73.44
34081;BME280;20358;50.272;19.026;2023-08-30T01:29:30;97138.63;;;20.49;73.15
34081;BME280;20358;50.272;19.026;2023-08-30T01:32:41;97146.72;;;20.47;73.32
34081;BME280;20358;50.272;19.026;2023-08-30T01:35:49;97151.56;;;20.52;73.08
34081;BME280;20358;50.272;19.026;2023-08-30T01:38:58;97126.81;;;20.35;72.81
34081;BME280;20358;50.272;19.026;2023-08-30T01:42:10;97153.53;;;20.58;72.83
34081;BME280;20358;50.272;19.026;2023-08-30T01:45:26;97143.59;;;20.52;71.96
34081;BME280;20358;50.272;19.026;2023-08-30T01:48:36;97156.19;;;20.58;71.95
34081;BME280;20358;50.272;19.026;2023-08-30T01:51:44;97133.78;;;20.52;72.25
34081;BME280;20358;50.272;19.026;2023-08-30T01:54:52;97130.66;;;20.49;72.21
34081;BME280;20358;50.272;19.026;2023-08-30T01:58:08;97126.00;;;20.42;72.53
34081;BME280;20358;50.272;19.026;2023-08-30T02:01:20;97142.25;;;20.48;72.50
34081;BME280;20358;50.272;19.026;2023-08-30T02:04:27;97145.09;;;20.46;72.50
34081;BME280;20358;50.272;19.026;2023-08-30T02:07:48;97136.94;;;20.39;72.62
34081;BME280;20358;50.272;19.026;2023-08-30T02:11:13;97155.19;;;20.42;72.19
34081;BME280;20358;50.272;19.026;2023-08-30T02:14:32;97150.22;;;20.39;72.04
34081;BME280;20358;50.272;19.026;2023-08-30T02:17:42;97154.22;;;20.35;72.46
34081;BME280;20358;50.272;19.026;2023-08-30T02:20:50;97157.00;;;20.34;72.43
34081;BME280;20358;50.272;19.026;2023-08-30T02:24:00;97160.69;;;20.33;72.16
34081;BME280;20358;50.272;19.026;2023-08-30T02:27:07;97161.84;;;20.30;72.26
34081;BME280;20358;50.272;19.026;2023-08-30T02:30:15;97151.88;;;20.24;72.48
34081;BME280;20358;50.272;19.026;2023-08-30T02:33:24;97158.16;;;20.31;72.79
34081;BME280;20358;50.272;19.026;2023-08-30T02:36:31;97154.03;;;20.37;72.36
34081;BME280;20358;50.272;19.026;2023-08-30T02:39:39;97148.56;;;20.38;72.00
34081;BME280;20358;50.272;19.026;2023-08-30T02:42:45;97132.97;;;20.35;71.84
34081;BME280;20358;50.272;19.026;2023-08-30T02:45:53;97135.63;;;20.35;71.93
34081;BME280;20358;50.272;19.026;2023-08-30T02:49:01;97136.28;;;20.29;71.80
34081;BME280;20358;50.272;19.026;2023-08-30T02:52:09;97139.44;;;20.25;72.05
34081;BME280;20358;50.272;19.026;2023-08-30T02:55:16;97135.09;;;20.24;72.94
34081;BME280;20358;50.272;19.026;2023-08-30T02:58:22;97140.94;;;20.27;72.09
34081;BME280;20358;50.272;19.026;2023-08-30T03:01:33;97139.59;;;20.31;72.40
34081;BME280;20358;50.272;19.026;2023-08-30T03:04:43;97134.97;;;20.33;72.16
34081;BME280;20358;50.272;19.026;2023-08-30T03:07:50;97116.88;;;20.29;72.32
34081;BME280;20358;50.272;19.026;2023-08-30T03:11:08;97127.66;;;20.27;72.16
34081;BME280;20358;50.272;19.026;2023-08-30T03:14:22;97122.16;;;20.29;72.67
34081;BME280;20358;50.272;19.026;2023-08-30T03:17:31;97135.28;;;20.30;72.45
34081;BME280;20358;50.272;19.026;2023-08-30T03:20:40;97133.94;;;20.26;72.74
34081;BME280;20358;50.272;19.026;2023-08-30T03:23:48;97124.50;;;20.24;72.30
34081;BME280;20358;50.272;19.026;2023-08-30T03:26:54;97136.94;;;20.23;72.33
34081;BME280;20358;50.272;19.026;2023-08-30T03:30:06;97139.59;;;20.23;72.81
34081;BME280;20358;50.272;19.026;2023-08-30T03:33:14;97146.56;;;20.24;72.77
34081;BME280;20358;50.272;19.026;2023-08-30T03:36:23;97138.41;;;20.26;72.17
34081;BME280;20358;50.272;19.026;2023-08-30T03:39:29;97141.91;;;20.26;72.37
34081;BME280;20358;50.272;19.026;2023-08-30T03:42:35;97146.22;;;20.27;72.23
34081;BME280;20358;50.272;19.026;2023-08-30T03:45:41;97147.19;;;20.18;71.70
34081;BME280;20358;50.272;19.026;2023-08-30T03:48:50;97145.84;;;20.14;72.20
34081;BME280;20358;50.272;19.026;2023-08-30T03:51:59;97143.03;;;20.16;72.33
34081;BME280;20358;50.272;19.026;2023-08-30T03:55:07;97141.22;;;20.16;72.66
34081;BME280;20358;50.272;19.026;2023-08-30T03:58:15;97139.59;;;20.23;72.83
34081;BME280;20358;50.272;19.026;2023-08-30T04:01:22;97154.19;;;20.27;72.38
34081;BME280;20358;50.272;19.026;2023-08-30T04:04:30;97151.88;;;20.24;72.30
34081;BME280;20358;50.272;19.026;2023-08-30T04:07:42;97160.44;;;20.18;72.22
34081;BME280;20358;50.272;19.026;2023-08-30T04:10:52;97167.75;;;20.16;72.32
34081;BME280;20358;50.272;19.026;2023-08-30T04:13:59;97159.31;;;20.13;72.29
34081;BME280;20358;50.272;19.026;2023-08-30T04:17:07;97162.63;;;20.15;72.00
34081;BME280;20358;50.272;19.026;2023-08-30T04:20:14;97151.16;;;20.06;71.57
34081;BME280;20358;50.272;19.026;2023-08-30T04:23:23;97147.16;;;20.10;72.08
34081;BME280;20358;50.272;19.026;2023-08-30T04:26:30;97140.72;;;20.13;71.72
34081;BME280;20358;50.272;19.026;2023-08-30T04:29:36;97143.88;;;20.16;71.64
34081;BME280;20358;50.272;19.026;2023-08-30T04:32:43;97146.19;;;20.11;71.41
34081;BME280;20358;50.272;19.026;2023-08-30T04:35:53;97141.19;;;20.08;71.38
34081;BME280;20358;50.272;19.026;2023-08-30T04:39:03;97149.50;;;20.13;71.66
34081;BME280;20358;50.272;19.026;2023-08-30T04:42:12;97155.13;;;20.10;71.20
34081;BME280;20358;50.272;19.026;2023-08-30T04:45:20;97164.09;;;20.09;71.08
34081;BME280;20358;50.272;19.026;2023-08-30T04:48:31;97163.09;;;20.02;72.07
34081;BME280;20358;50.272;19.026;2023-08-30T04:51:40;97167.00;;;19.82;72.29
34081;BME280;20358;50.272;19.026;2023-08-30T04:54:51;97160.97;;;19.64;73.23
34081;BME280;20358;50.272;19.026;2023-08-30T04:58:01;97138.41;;;19.52;73.86
34081;BME280;20358;50.272;19.026;2023-08-30T05:01:10;97152.16;;;19.47;74.67
34081;BME280;20358;50.272;19.026;2023-08-30T05:04:24;97153.91;;;19.39;75.26
34081;BME280;20358;50.272;19.026;2023-08-30T05:07:30;97149.56;;;19.30;75.98
34081;BME280;20358;50.272;19.026;2023-08-30T05:10:41;97156.75;;;19.11;76.64
34081;BME280;20358;50.272;19.026;2023-08-30T05:13:51;97161.72;;;19.14;76.90
34081;BME280;20358;50.272;19.026;2023-08-30T05:17:02;97156.69;;;19.03;75.31
34081;BME280;20358;50.272;19.026;2023-08-30T05:20:10;97150.91;;;19.08;75.62
34081;BME280;20358;50.272;19.026;2023-08-30T05:23:21;97146.16;;;19.11;75.86
34081;BME280;20358;50.272;19.026;2023-08-30T05:26:33;97147.13;;;19.10;75.67
34081;BME280;20358;50.272;19.026;2023-08-30T05:29:41;97145.84;;;19.23;75.85
34081;BME280;20358;50.272;19.026;2023-08-30T05:32:49;97143.31;;;19.39;75.53
34081;BME280;20358;50.272;19.026;2023-08-30T05:36:21;97145.47;;;19.43;75.14
34081;BME280;20358;50.272;19.026;2023-08-30T05:39:48;97158.59;;;19.45;75.06
34081;BME280;20358;50.272;19.026;2023-08-30T05:43:01;97158.28;;;19.56;74.94
34081;BME280;20358;50.272;19.026;2023-08-30T05:46:13;97151.69;;;19.60;73.71
34081;BME280;20358;50.272;19.026;2023-08-30T05:49:21;97161.31;;;19.61;73.72
34081;BME280;20358;50.272;19.026;2023-08-30T05:52:28;97173.91;;;19.67;73.91
34081;BME280;20358;50.272;19.026;2023-08-30T05:55:35;97168.78;;;19.65;73.36
34081;BME280;20358;50.272;19.026;2023-08-30T05:58:49;97172.25;;;19.58;73.41
34081;BME280;20358;50.272;19.026;2023-08-30T06:01:58;97179.31;;;19.24;74.35
34081;BME280;20358;50.272;19.026;2023-08-30T06:05:04;97163.47;;;19.32;73.86
34081;BME280;20358;50.272;19.026;2023-08-30T06:08:12;97180.16;;;19.50;73.32
34081;BME280;20358;50.272;19.026;2023-08-30T06:11:24;97182.63;;;19.51;73.37
34081;BME280;20358;50.272;19.026;2023-08-30T06:14:33;97185.41;;;19.42;73.84
34081;BME280;20358;50.272;19.026;2023-08-30T06:17:39;97191.56;;;19.42;73.87
34081;BME280;20358;50.272;19.026;2023-08-30T06:20:47;97186.56;;;19.39;73.75
34081;BME280;20358;50.272;19.026;2023-08-30T06:23:54;97189.25;;;19.47;73.85
34081;BME280;20358;50.272;19.026;2023-08-30T06:27:05;97197.00;;;19.41;73.62
34081;BME280;20358;50.272;19.026;2023-08-30T06:30:14;97190.81;;;19.32;73.87
34081;BME280;20358;50.272;19.026;2023-08-30T06:33:21;97195.50;;;19.38;74.44
34081;BME280;20358;50.272;19.026;2023-08-30T06:36:31;97199.03;;;19.47;73.54
34081;BME280;20358;50.272;19.026;2023-08-30T06:39:38;97188.50;;;19.63;73.55
34081;BME280;20358;50.272;19.026;2023-08-30T06:42:51;97194.34;;;19.83;72.70
34081;BME280;20358;50.272;19.026;2023-08-30T06:46:00;97180.59;;;19.87;72.03
34081;BME280;20358;50.272;19.026;2023-08-30T06:49:07;97199.50;;;19.92;71.88
34081;BME280;20358;50.272;19.026;2023-08-30T06:52:16;97184.94;;;19.88;71.56
34081;BME280;20358;50.272;19.026;2023-08-30T06:55:31;97205.19;;;19.97;71.65
34081;BME280;20358;50.272;19.026;2023-08-30T06:58:39;97204.81;;;19.92;71.31
34081;BME280;20358;50.272;19.026;2023-08-30T07:01:55;97178.94;;;19.78;71.62
34081;BME280;20358;50.272;19.026;2023-08-30T07:05:02;97175.28;;;19.71;71.44
34081;BME280;20358;50.272;19.026;2023-08-30T07:08:15;97142.34;;;19.40;71.44
34081;BME280;20358;50.272;19.026;2023-08-30T07:11:22;97214.41;;;19.85;71.34
34081;BME280;20358;50.272;19.026;2023-08-30T07:14:36;97204.47;;;19.79;70.93
34081;BME280;20358;50.272;19.026;2023-08-30T07:17:46;97195.50;;;19.80;71.51
34081;BME280;20358;50.272;19.026;2023-08-30T07:20:57;97206.88;;;20.06;70.77
34081;BME280;20358;50.272;19.026;2023-08-30T07:24:05;97222.16;;;20.12;69.99
34081;BME280;20358;50.272;19.026;2023-08-30T07:27:13;97230.78;;;20.14;69.91
34081;BME280;20358;50.272;19.026;2023-08-30T07:30:20;97210.13;;;19.92;69.74
34081;BME280;20358;50.272;19.026;2023-08-30T07:33:31;97213.16;;;19.97;70.20
34081;BME280;20358;50.272;19.026;2023-08-30T07:36:38;97211.84;;;20.09;70.70
34081;BME280;20358;50.272;19.026;2023-08-30T07:39:51;97227.19;;;20.31;69.53
34081;BME280;20358;50.272;19.026;2023-08-30T07:42:58;97231.66;;;20.39;69.05
34081;BME280;20358;50.272;19.026;2023-08-30T07:46:04;97231.84;;;20.37;69.13
34081;BME280;20358;50.272;19.026;2023-08-30T07:49:14;97231.53;;;20.40;69.60
34081;BME280;20358;50.272;19.026;2023-08-30T07:52:24;97234.97;;;20.25;69.13
34081;BME280;20358;50.272;19.026;2023-08-30T07:55:40;97230.75;;;20.06;69.47
34081;BME280;20358;50.272;19.026;2023-08-30T07:58:46;97241.38;;;20.14;69.59
34081;BME280;20358;50.272;19.026;2023-08-30T08:01:56;97226.53;;;19.88;69.74
34081;BME280;20358;50.272;19.026;2023-08-30T08:05:14;97255.44;;;19.99;70.03
34081;BME280;20358;50.272;19.026;2023-08-30T08:08:23;97254.25;;;19.93;70.39
34081;BME280;20358;50.272;19.026;2023-08-30T08:11:30;97254.56;;;19.90;70.19
34081;BME280;20358;50.272;19.026;2023-08-30T08:14:37;97251.88;;;19.82;71.17
34081;BME280;20358;50.272;19.026;2023-08-30T08:17:44;97260.53;;;19.84;71.11
34081;BME280;20358;50.272;19.026;2023-08-30T08:20:54;97242.63;;;19.86;71.40
34081;BME280;20358;50.272;19.026;2023-08-30T08:24:02;97242.31;;;19.89;70.47
34081;BME280;20358;50.272;19.026;2023-08-30T08:27:09;97256.94;;;20.01;69.98
34081;BME280;20358;50.272;19.026;2023-08-30T08:30:15;97263.88;;;19.94;69.72
34081;BME280;20358;50.272;19.026;2023-08-30T08:33:24;97242.59;;;19.78;70.11
34081;BME280;20358;50.272;19.026;2023-08-30T08:36:35;97269.22;;;20.02;70.17
34081;BME280;20358;50.272;19.026;2023-08-30T08:39:44;97264.91;;;20.09;69.77
34081;BME280;20358;50.272;19.026;2023-08-30T08:42:54;97263.63;;;20.21;68.54
34081;BME280;20358;50.272;19.026;2023-08-30T08:46:04;97271.97;;;20.26;68.30
34081;BME280;20358;50.272;19.026;2023-08-30T08:49:15;97277.28;;;20.26;68.76
34081;BME280;20358;50.272;19.026;2023-08-30T08:52:27;97286.94;;;20.35;68.12
34081;BME280;20358;50.272;19.026;2023-08-30T08:55:58;97277.84;;;20.46;68.10
34081;BME280;20358;50.272;19.026;2023-08-30T08:59:12;97277.84;;;20.46;67.59
34081;BME280;20358;50.272;19.026;2023-08-30T09:02:18;97280.66;;;20.53;66.82
34081;BME280;20358;50.272;19.026;2023-08-30T09:05:27;97283.00;;;20.56;66.83
34081;BME280;20358;50.272;19.026;2023-08-30T09:08:38;97285.81;;;20.54;66.67
34081;BME280;20358;50.272;19.026;2023-08-30T09:11:52;97275.00;;;20.48;66.65
34081;BME280;20358;50.272;19.026;2023-08-30T09:15:05;97281.31;;;20.38;67.26
34081;BME280;20358;50.272;19.026;2023-08-30T09:18:16;97291.72;;;20.32;67.41
34081;BME280;20358;50.272;19.026;2023-08-30T09:21:24;97282.59;;;20.34;67.30
34081;BME280;20358;50.272;19.026;2023-08-30T09:24:41;97280.59;;;20.28;67.38
34081;BME280;20358;50.272;19.026;2023-08-30T09:27:58;97273.34;;;20.38;67.48
34081;BME280;20358;50.272;19.026;2023-08-30T09:31:06;97282.47;;;20.52;67.03
34081;BME280;20358;50.272;19.026;2023-08-30T09:34:45;97275.69;;;20.58;66.14
34081;BME280;20358;50.272;19.026;2023-08-30T09:43:30;97274.56;;;20.76;66.39
34081;BME280;20358;50.272;19.026;2023-08-30T09:50:54;97282.38;;;20.94;65.06
34081;BME280;20358;50.272;19.026;2023-08-30T09:54:17;97271.72;;;20.86;65.27
34081;BME280;20358;50.272;19.026;2023-08-30T09:57:43;97284.03;;;20.79;65.28
34081;BME280;20358;50.272;19.026;2023-08-30T10:00:58;97281.53;;;20.77;65.33
34081;BME280;20358;50.272;19.026;2023-08-30T10:04:07;97281.19;;;20.80;64.99
34081;BME280;20358;50.272;19.026;2023-08-30T10:07:24;97290.81;;;20.73;64.71
34081;BME280;20358;50.272;19.026;2023-08-30T10:10:36;97288.03;;;20.83;64.92
34081;BME280;20358;50.272;19.026;2023-08-30T10:13:47;97291.16;;;20.78;64.95
34081;BME280;20358;50.272;19.026;2023-08-30T10:17:05;97279.03;;;20.76;65.26
34081;BME280;20358;50.272;19.026;2023-08-30T10:20:20;97279.38;;;20.89;64.71
34081;BME280;20358;50.272;19.026;2023-08-30T10:23:28;97277.72;;;20.96;64.38
34081;BME280;20358;50.272;19.026;2023-08-30T10:26:44;97277.06;;;21.02;64.31
34081;BME280;20358;50.272;19.026;2023-08-30T10:30:02;97268.78;;;21.13;64.40
34081;BME280;20358;50.272;19.026;2023-08-30T10:33:19;97271.13;;;21.16;63.48
34081;BME280;20358;50.272;19.026;2023-08-30T10:36:28;97279.41;;;21.29;63.32
34081;BME280;20358;50.272;19.026;2023-08-30T10:39:39;97273.25;;;21.29;63.23
34081;BME280;20358;50.272;19.026;2023-08-30T10:42:45;97279.03;;;21.32;63.08
34081;BME280;20358;50.272;19.026;2023-08-30T10:45:59;97282.06;;;21.29;62.95
34081;BME280;20358;50.272;19.026;2023-08-30T10:49:14;97288.03;;;21.15;63.40
34081;BME280;20358;50.272;19.026;2023-08-30T10:52:27;97288.22;;;21.14;63.69
34081;BME280;20358;50.272;19.026;2023-08-30T10:55:41;97293.34;;;21.07;63.18
34081;BME280;20358;50.272;19.026;2023-08-30T10:59:21;97263.25;;;20.98;63.35
34081;BME280;20358;50.272;19.026;2023-08-30T11:02:33;97290.03;;;21.21;63.28
34081;BME280;20358;50.272;19.026;2023-08-30T11:05:45;97294.34;;;21.30;63.01
34081;BME280;20358;50.272;19.026;2023-08-30T11:08:53;97291.88;;;21.29;62.39
34081;BME280;20358;50.272;19.026;2023-08-30T11:12:07;97286.38;;;21.30;62.30
34081;BME280;20358;50.272;19.026;2023-08-30T11:15:13;97278.72;;;21.27;62.21
34081;BME280;20358;50.272;19.026;2023-08-30T11:18:21;97282.88;;;21.38;62.67
34081;BME280;20358;50.272;19.026;2023-08-30T11:21:43;97270.06;;;21.57;62.44
34081;BME280;20358;50.272;19.026;2023-08-30T11:24:52;97276.00;;;21.68;61.54
34081;BME280;20358;50.272;19.026;2023-08-30T11:28:06;97273.31;;;21.76;61.51
34081;BME280;20358;50.272;19.026;2023-08-30T11:31:18;97274.97;;;21.77;61.57
34081;BME280;20358;50.272;19.026;2023-08-30T11:34:30;97273.19;;;21.61;62.12
34081;BME280;20358;50.272;19.026;2023-08-30T11:37:40;97270.53;;;21.53;62.59
34081;BME280;20358;50.272;19.026;2023-08-30T11:40:52;97282.72;;;21.31;62.24
34081;BME280;20358;50.272;19.026;2023-08-30T11:44:00;97269.63;;;21.22;62.56
34081;BME280;20358;50.272;19.026;2023-08-30T11:47:09;97272.09;;;21.23;62.37
34081;BME280;20358;50.272;19.026;2023-08-30T11:50:19;97275.06;;;21.28;62.41
34081;BME280;20358;50.272;19.026;2023-08-30T11:53:39;97276.06;;;21.27;62.12
34081;BME280;20358;50.272;19.026;2023-08-30T11:56:50;97288.34;;;21.44;61.95
34081;BME280;20358;50.272;19.026;2023-08-30T12:00:07;97274.38;;;21.50;61.95
34081;BME280;20358;50.272;19.026;2023-08-30T12:03:18;97272.84;;;21.64;61.58
34081;BME280;20358;50.272;19.026;2023-08-30T12:06:26;97283.81;;;21.69;61.57
34081;BME280;20358;50.272;19.026;2023-08-30T12:09:36;97268.53;;;21.63;61.93
34081;BME280;20358;50.272;19.026;2023-08-30T12:12:45;97272.31;;;21.69;61.74
34081;BME280;20358;50.272;19.026;2023-08-30T12:15:52;97266.00;;;21.78;61.84
34081;BME280;20358;50.272;19.026;2023-08-30T12:19:08;97261.94;;;21.98;61.22
34081;BME280;20358;50.272;19.026;2023-08-30T12:22:16;97258.88;;;22.17;60.24
34081;BME280;20358;50.272;19.026;2023-08-30T12:25:26;97271.31;;;22.24;60.85
34081;BME280;20358;50.272;19.026;2023-08-30T12:28:35;97270.44;;;22.32;59.97
34081;BME280;20358;50.272;19.026;2023-08-30T12:31:42;97271.84;;;22.20;59.76
34081;BME280;20358;50.272;19.026;2023-08-30T12:34:50;97274.72;;;22.02;59.79
34081;BME280;20358;50.272;19.026;2023-08-30T12:37:58;97278.25;;;21.95;60.48
34081;BME280;20358;50.272;19.026;2023-08-30T12:41:10;97275.97;;;21.84;60.57
34081;BME280;20358;50.272;19.026;2023-08-30T12:44:17;97276.63;;;21.78;60.33
34081;BME280;20358;50.272;19.026;2023-08-30T12:47:24;97267.72;;;21.62;60.84
34081;BME280;20358;50.272;19.026;2023-08-30T12:50:31;97274.34;;;21.67;61.30
34081;BME280;20358;50.272;19.026;2023-08-30T12:53:38;97276.66;;;21.70;61.51
34081;BME280;20358;50.272;19.026;2023-08-30T12:56:48;97280.00;;;21.63;61.87
34081;BME280;20358;50.272;19.026;2023-08-30T12:59:55;97287.72;;;21.26;63.15
34081;BME280;20358;50.272;19.026;2023-08-30T13:03:02;97282.72;;;21.23;62.86
34081;BME280;20358;50.272;19.026;2023-08-30T13:06:11;97256.63;;;20.94;63.13
34081;BME280;20358;50.272;19.026;2023-08-30T13:09:24;97284.06;;;21.19;63.30
34081;BME280;20358;50.272;19.026;2023-08-30T13:12:34;97297.69;;;21.16;63.38
34081;BME280;20358;50.272;19.026;2023-08-30T13:15:44;97307.16;;;21.19;63.51
34081;BME280;20358;50.272;19.026;2023-08-30T13:18:52;97307.63;;;21.22;63.81
34081;BME280;20358;50.272;19.026;2023-08-30T13:21:58;97291.88;;;21.13;62.92
34081;BME280;20358;50.272;19.026;2023-08-30T13:25:06;97283.38;;;21.25;63.24
34081;BME280;20358;50.272;19.026;2023-08-30T13:28:16;97292.34;;;21.32;63.05
34081;BME280;20358;50.272;19.026;2023-08-30T13:31:26;97263.13;;;21.24;63.00
34081;BME280;20358;50.272;19.026;2023-08-30T13:34:34;97278.56;;;21.37;62.69
34081;BME280;20358;50.272;19.026;2023-08-30T13:37:40;97284.53;;;21.47;62.31
34081;BME280;20358;50.272;19.026;2023-08-30T13:40:46;97290.84;;;21.46;62.49
34081;BME280;20358;50.272;19.026;2023-08-30T13:43:56;97292.31;;;21.48;62.66
34081;BME280;20358;50.272;19.026;2023-08-30T13:47:05;97293.03;;;21.26;62.92
34081;BME280;20358;50.272;19.026;2023-08-30T13:50:12;97304.00;;;21.23;63.31
34081;BME280;20358;50.272;19.026;2023-08-30T13:53:19;97293.66;;;21.04;63.79
34081;BME280;20358;50.272;19.026;2023-08-30T13:56:28;97296.63;;;20.77;64.49
34081;BME280;20358;50.272;19.026;2023-08-30T13:59:37;97283.16;;;20.62;64.99
34081;BME280;20358;50.272;19.026;2023-08-30T14:02:44;97284.81;;;20.63;65.51
34081;BME280;20358;50.272;19.026;2023-08-30T14:05:56;97298.75;;;20.65;66.22
34081;BME280;20358;50.272;19.026;2023-08-30T14:09:03;97294.44;;;20.56;66.05
34081;BME280;20358;50.272;19.026;2023-08-30T14:12:13;97302.91;;;20.52;66.28
34081;BME280;20358;50.272;19.026;2023-08-30T14:15:22;97280.94;;;20.41;66.04
34081;BME280;20358;50.272;19.026;2023-08-30T14:18:33;97297.59;;;20.52;66.18
34081;BME280;20358;50.272;19.026;2023-08-30T14:21:41;97303.59;;;20.62;65.91
34081;BME280;20358;50.272;19.026;2023-08-30T14:24:47;97298.28;;;20.62;65.85
34081;BME280;20358;50.272;19.026;2023-08-30T14:28:13;97304.06;;;20.65;65.74
34081;BME280;20358;50.272;19.026;2023-08-30T14:31:23;97305.38;;;20.53;66.16
34081;BME280;20358;50.272;19.026;2023-08-30T14:34:31;97300.88;;;20.37;67.56
34081;BME280;20358;50.272;19.026;2023-08-30T14:37:43;97301.19;;;20.34;68.05
34081;BME280;20358;50.272;19.026;2023-08-30T14:40:57;97298.50;;;20.26;68.52
34081;BME280;20358;50.272;19.026;2023-08-30T14:44:04;97307.72;;;20.14;68.91
34081;BME280;20358;50.272;19.026;2023-08-30T14:47:15;97311.69;;;20.10;69.02
34081;BME280;20358;50.272;19.026;2023-08-30T14:50:21;97313.53;;;20.10;69.19
34081;BME280;20358;50.272;19.026;2023-08-30T14:53:29;97293.44;;;20.07;69.52
34081;BME280;20358;50.272;19.026;2023-08-30T14:56:35;97309.75;;;20.20;68.92
34081;BME280;20358;50.272;19.026;2023-08-30T14:59:42;97309.75;;;20.20;68.95
34081;BME280;20358;50.272;19.026;2023-08-30T15:02:51;97321.72;;;20.24;68.62
34081;BME280;20358;50.272;19.026;2023-08-30T15:06:03;97300.34;;;20.34;68.76
34081;BME280;20358;50.272;19.026;2023-08-30T15:09:18;97292.59;;;20.40;68.87
34081;BME280;20358;50.272;19.026;2023-08-30T15:12:26;97301.38;;;20.41;68.20
34081;BME280;20358;50.272;19.026;2023-08-30T15:15:35;97328.78;;;20.50;67.13
34081;BME280;20358;50.272;19.026;2023-08-30T15:18:48;97323.81;;;20.55;66.74
34081;BME280;20358;50.272;19.026;2023-08-30T15:21:56;97328.44;;;20.45;67.34
34081;BME280;20358;50.272;19.026;2023-08-30T15:25:04;97338.34;;;20.34;67.93
34081;BME280;20358;50.272;19.026;2023-08-30T15:28:10;97314.66;;;20.07;67.81
34081;BME280;20358;50.272;19.026;2023-08-30T15:31:17;97330.91;;;20.04;67.79
34081;BME280;20358;50.272;19.026;2023-08-30T15:34:29;97341.44;;;19.88;68.06
34081;BME280;20358;50.272;19.026;2023-08-30T15:37:36;97337.16;;;19.95;68.84
34081;BME280;20358;50.272;19.026;2023-08-30T15:40:42;97333.09;;;19.83;68.28
34081;BME280;20358;50.272;19.026;2023-08-30T15:44:01;97340.91;;;19.85;68.80
34081;BME280;20358;50.272;19.026;2023-08-30T15:47:07;97327.28;;;19.79;68.86
34081;BME280;20358;50.272;19.026;2023-08-30T15:50:17;97335.56;;;19.76;68.01
34081;BME280;20358;50.272;19.026;2023-08-30T15:53:23;97340.75;;;19.86;68.17
34081;BME280;20358;50.272;19.026;2023-08-30T15:56:30;97343.59;;;19.93;68.06
34081;BME280;20358;50.272;19.026;2023-08-30T15:59:36;97361.03;;;19.95;67.95
34081;BME280;20358;50.272;19.026;2023-08-30T16:02:42;97351.59;;;20.01;68.10
34081;BME280;20358;50.272;19.026;2023-08-30T16:05:53;97360.03;;;19.96;67.32
34081;BME280;20358;50.272;19.026;2023-08-30T16:09:03;97353.91;;;19.96;67.42
34081;BME280;20358;50.272;19.026;2023-08-30T16:12:12;97355.75;;;20.03;66.90
34081;BME280;20358;50.272;19.026;2023-08-30T16:15:27;97351.09;;;19.97;66.87
34081;BME280;20358;50.272;19.026;2023-08-30T16:18:40;97350.44;;;20.03;66.60
34081;BME280;20358;50.272;19.026;2023-08-30T16:21:54;97360.41;;;20.01;66.22
34081;BME280;20358;50.272;19.026;2023-08-30T16:25:03;97357.13;;;20.07;66.38
34081;BME280;20358;50.272;19.026;2023-08-30T16:28:11;97367.41;;;20.10;66.45
34081;BME280;20358;50.272;19.026;2023-08-30T16:31:27;97361.59;;;20.07;66.13
34081;BME280;20358;50.272;19.026;2023-08-30T16:34:39;97362.22;;;20.01;66.35
34081;BME280;20358;50.272;19.026;2023-08-30T16:37:49;97367.03;;;20.05;66.60
34081;BME280;20358;50.272;19.026;2023-08-30T16:40:57;97368.75;;;20.14;66.08
34081;BME280;20358;50.272;19.026;2023-08-30T16:44:15;97367.09;;;20.13;65.54